sensor_id;sensor_type;location;lat;lon;timestamp;P1;durP1;ratioP1;P2;durP2;ratioP2
68375;SDS011;55318;52.068;5.188;2023-07-31T00:00:19;1.4;;;0.8;;
68375;SDS011;55318;52.068;5.188;2023-07-31T00:01:57;4.7;;;1.5;;
68375;SDS011;55318;52.068;5.188;2023-07-31T00:03:34;1.8;;;1.5;;
68375;SDS011;55318;52.068;5.188;2023-07-31T00:06:47;3.4;;;1.9;;
68375;SDS011;55318;52.068;5.188;2023-07-31T00:08:24;2.4;;;1.5;;
68375;SDS011;55318;52.068;5.188;2023-07-31T00:10:00;3.1;;;2.0;;
68375;SDS011;55318;52.068;5.188;2023-07-31T00:11:38;4.3;;;1.7;;
68375;SDS011;55318;52.068;5.188;2023-07-31T00:14:51;5.4;;;1.9;;
68375;SDS011;55318;52.068;5.188;2023-07-31T00:16:28;4.91;;;1.9;;
68375;SDS011;55318;52.068;5.188;2023-07-31T00:18:05;8.31;;;3.0;;
68375;SDS011;55318;52.068;5.188;2023-07-31T00:21:19;6.0;;;2.21;;
68375;SDS011;55318;52.068;5.188;2023-07-31T00:22:56;10.0;;;3.8;;
68375;SDS011;55318;52.068;5.188;2023-07-31T00:24:34;8.0;;;3.7;;
68375;SDS011;55318;52.068;5.188;2023-07-31T00:27:47;10.1;;;3.7;;
68375;SDS011;55318;52.068;5.188;2023-07-31T00:29:23;11.7;;;3.8;;
68375;SDS011;55318;52.068;5.188;2023-07-31T00:31:00;10.9;;;3.5;;
68375;SDS011;55318;52.068;5.188;2023-07-31T00:32:38;11.1;;;3.5;;
68375;SDS011;55318;52.068;5.188;2023-07-31T00:35:51;13.0;;;4.2;;
68375;SDS011;55318;52.068;5.188;2023-07-31T00:37:28;12.1;;;3.8;;
68375;SDS011;55318;52.068;5.188;2023-07-31T00:39:04;12.4;;;3.9;;
68375;SDS011;55318;52.068;5.188;2023-07-31T00:42:17;16.2;;;4.8;;
68375;SDS011;55318;52.068;5.188;2023-07-31T00:43:53;17.11;;;4.3;;
68375;SDS011;55318;52.068;5.188;2023-07-31T00:45:30;9.21;;;3.9;;
68375;SDS011;55318;52.068;5.188;2023-07-31T00:47:08;10.6;;;3.3;;
68375;SDS011;55318;52.068;5.188;2023-07-31T00:50:22;13.1;;;4.7;;
68375;SDS011;55318;52.068;5.188;2023-07-31T00:52:00;10.6;;;3.3;;
68375;SDS011;55318;52.068;5.188;2023-07-31T00:53:37;15.6;;;4.7;;
68375;SDS011;55318;52.068;5.188;2023-07-31T00:56:51;15.2;;;3.9;;
68375;SDS011;55318;52.068;5.188;2023-07-31T00:58:30;18.0;;;3.9;;
68375;SDS011;55318;52.068;5.188;2023-07-31T01:00:07;12.8;;;3.6;;
68375;SDS011;55318;52.068;5.188;2023-07-31T01:01:46;12.6;;;4.8;;
68375;SDS011;55318;52.068;5.188;2023-07-31T01:05:00;13.8;;;4.1;;
68375;SDS011;55318;52.068;5.188;2023-07-31T01:06:39;13.2;;;4.2;;
68375;SDS011;55318;52.068;5.188;2023-07-31T01:08:30;11.1;;;4.61;;
68375;SDS011;55318;52.068;5.188;2023-07-31T01:10:26;15.0;;;3.7;;
68375;SDS011;55318;52.068;5.188;2023-07-31T01:13:50;13.2;;;4.1;;
68375;SDS011;55318;52.068;5.188;2023-07-31T01:15:27;12.1;;;4.0;;
68375;SDS011;55318;52.068;5.188;2023-07-31T01:17:04;13.9;;;3.9;;
68375;SDS011;55318;52.068;5.188;2023-07-31T01:18:40;12.7;;;4.8;;
68375;SDS011;55318;52.068;5.188;2023-07-31T01:22:02;16.0;;;4.1;;
68375;SDS011;55318;52.068;5.188;2023-07-31T01:24:08;9.1;;;3.4;;
68375;SDS011;55318;52.068;5.188;2023-07-31T01:26:23;10.8;;;3.8;;
68375;SDS011;55318;52.068;5.188;2023-07-31T01:28:05;12.6;;;3.3;;
68375;SDS011;55318;52.068;5.188;2023-07-31T01:29:49;11.9;;;3.7;;
68375;SDS011;55318;52.068;5.188;2023-07-31T01:31:35;10.3;;;3.5;;
68375;SDS011;55318;52.068;5.188;2023-07-31T01:33:15;12.0;;;3.7;;
68375;SDS011;55318;52.068;5.188;2023-07-31T01:36:31;14.5;;;4.61;;
68375;SDS011;55318;52.068;5.188;2023-07-31T01:38:08;9.0;;;3.3;;
68375;SDS011;55318;52.068;5.188;2023-07-31T01:39:45;12.9;;;4.1;;
68375;SDS011;55318;52.068;5.188;2023-07-31T01:42:57;13.3;;;5.0;;
68375;SDS011;55318;52.068;5.188;2023-07-31T01:44:34;11.5;;;4.1;;
68375;SDS011;55318;52.068;5.188;2023-07-31T01:46:11;15.7;;;4.61;;
68375;SDS011;55318;52.068;5.188;2023-07-31T01:47:48;11.3;;;3.9;;
68375;SDS011;55318;52.068;5.188;2023-07-31T01:51:01;9.4;;;3.3;;
68375;SDS011;55318;52.068;5.188;2023-07-31T01:52:38;9.4;;;3.4;;
68375;SDS011;55318;52.068;5.188;2023-07-31T01:54:15;8.9;;;3.2;;
68375;SDS011;55318;52.068;5.188;2023-07-31T01:57:28;11.9;;;3.8;;
68375;SDS011;55318;52.068;5.188;2023-07-31T01:59:04;8.9;;;3.2;;
68375;SDS011;55318;52.068;5.188;2023-07-31T02:00:41;12.5;;;3.6;;
68375;SDS011;55318;52.068;5.188;2023-07-31T02:03:55;9.31;;;2.6;;
68375;SDS011;55318;52.068;5.188;2023-07-31T02:05:32;9.31;;;2.6;;
68375;SDS011;55318;52.068;5.188;2023-07-31T02:07:09;7.0;;;2.4;;
68375;SDS011;55318;52.068;5.188;2023-07-31T02:08:45;13.2;;;3.3;;
68375;SDS011;55318;52.068;5.188;2023-07-31T02:12:00;7.6;;;2.8;;
68375;SDS011;55318;52.068;5.188;2023-07-31T02:13:37;5.5;;;2.31;;
68375;SDS011;55318;52.068;5.188;2023-07-31T02:15:13;6.7;;;2.6;;
68375;SDS011;55318;52.068;5.188;2023-07-31T02:18:26;16.5;;;3.0;;
68375;SDS011;55318;52.068;5.188;2023-07-31T02:20:04;4.5;;;2.31;;
68375;SDS011;55318;52.068;5.188;2023-07-31T02:21:42;5.11;;;2.21;;
68375;SDS011;55318;52.068;5.188;2023-07-31T02:24:55;7.4;;;2.4;;
68375;SDS011;55318;52.068;5.188;2023-07-31T02:26:31;6.9;;;2.31;;
68375;SDS011;55318;52.068;5.188;2023-07-31T02:28:07;6.4;;;2.31;;
68375;SDS011;55318;52.068;5.188;2023-07-31T02:29:45;11.1;;;3.3;;
68375;SDS011;55318;52.068;5.188;2023-07-31T02:32:58;9.21;;;3.2;;
68375;SDS011;55318;52.068;5.188;2023-07-31T02:34:35;11.0;;;3.6;;
68375;SDS011;55318;52.068;5.188;2023-07-31T02:36:11;6.5;;;3.1;;
68375;SDS011;55318;52.068;5.188;2023-07-31T02:39:25;8.81;;;2.5;;
68375;SDS011;55318;52.068;5.188;2023-07-31T02:41:03;13.8;;;4.1;;
68375;SDS011;55318;52.068;5.188;2023-07-31T02:42:39;9.31;;;3.4;;
68375;SDS011;55318;52.068;5.188;2023-07-31T02:44:16;8.9;;;3.3;;
68375;SDS011;55318;52.068;5.188;2023-07-31T02:47:29;8.6;;;3.3;;
68375;SDS011;55318;52.068;5.188;2023-07-31T02:49:06;8.9;;;3.5;;
68375;SDS011;55318;52.068;5.188;2023-07-31T02:50:42;12.9;;;3.8;;
68375;SDS011;55318;52.068;5.188;2023-07-31T02:53:55;9.0;;;3.6;;
68375;SDS011;55318;52.068;5.188;2023-07-31T02:55:31;9.31;;;3.2;;
68375;SDS011;55318;52.068;5.188;2023-07-31T02:57:08;8.71;;;3.4;;
68375;SDS011;55318;52.068;5.188;2023-07-31T03:00:21;11.2;;;3.7;;
68375;SDS011;55318;52.068;5.188;2023-07-31T03:01:58;11.6;;;4.2;;
68375;SDS011;55318;52.068;5.188;2023-07-31T03:03:35;11.3;;;3.8;;
68375;SDS011;55318;52.068;5.188;2023-07-31T03:05:12;14.8;;;4.5;;
68375;SDS011;55318;52.068;5.188;2023-07-31T03:08:26;10.8;;;3.4;;
68375;SDS011;55318;52.068;5.188;2023-07-31T03:10:03;12.5;;;4.2;;
68375;SDS011;55318;52.068;5.188;2023-07-31T03:11:40;14.6;;;3.3;;
68375;SDS011;55318;52.068;5.188;2023-07-31T03:14:54;10.6;;;3.7;;
68375;SDS011;55318;52.068;5.188;2023-07-31T03:16:31;9.71;;;3.6;;
68375;SDS011;55318;52.068;5.188;2023-07-31T03:18:08;13.8;;;4.2;;
68375;SDS011;55318;52.068;5.188;2023-07-31T03:21:21;14.0;;;4.1;;
68375;SDS011;55318;52.068;5.188;2023-07-31T03:22:58;12.1;;;3.6;;
68375;SDS011;55318;52.068;5.188;2023-07-31T03:24:34;11.9;;;4.3;;
68375;SDS011;55318;52.068;5.188;2023-07-31T03:26:11;6.9;;;3.7;;
68375;SDS011;55318;52.068;5.188;2023-07-31T03:29:25;18.3;;;4.8;;
68375;SDS011;55318;52.068;5.188;2023-07-31T03:31:02;10.5;;;3.7;;
68375;SDS011;55318;52.068;5.188;2023-07-31T03:32:38;11.2;;;3.5;;
68375;SDS011;55318;52.068;5.188;2023-07-31T03:35:52;9.21;;;3.5;;
68375;SDS011;55318;52.068;5.188;2023-07-31T03:37:29;8.71;;;3.2;;
68375;SDS011;55318;52.068;5.188;2023-07-31T03:39:06;13.0;;;3.1;;
68375;SDS011;55318;52.068;5.188;2023-07-31T03:42:19;11.4;;;3.5;;
68375;SDS011;55318;52.068;5.188;2023-07-31T03:43:56;12.5;;;3.9;;
68375;SDS011;55318;52.068;5.188;2023-07-31T03:45:33;11.1;;;3.6;;
68375;SDS011;55318;52.068;5.188;2023-07-31T03:47:10;9.0;;;3.6;;
68375;SDS011;55318;52.068;5.188;2023-07-31T03:50:24;9.31;;;3.5;;
68375;SDS011;55318;52.068;5.188;2023-07-31T03:52:00;9.5;;;3.6;;
68375;SDS011;55318;52.068;5.188;2023-07-31T03:53:37;11.3;;;3.5;;
68375;SDS011;55318;52.068;5.188;2023-07-31T03:56:51;12.5;;;3.7;;
68375;SDS011;55318;52.068;5.188;2023-07-31T03:58:27;8.31;;;3.7;;
68375;SDS011;55318;52.068;5.188;2023-07-31T04:00:05;11.0;;;4.0;;
68375;SDS011;55318;52.068;5.188;2023-07-31T04:01:43;7.3;;;3.8;;
68375;SDS011;55318;52.068;5.188;2023-07-31T04:04:56;10.6;;;3.5;;
68375;SDS011;55318;52.068;5.188;2023-07-31T04:06:32;13.4;;;3.7;;
68375;SDS011;55318;52.068;5.188;2023-07-31T04:08:09;8.5;;;4.0;;
68375;SDS011;55318;52.068;5.188;2023-07-31T04:11:23;13.3;;;4.61;;
68375;SDS011;55318;52.068;5.188;2023-07-31T04:13:00;12.8;;;3.7;;
68375;SDS011;55318;52.068;5.188;2023-07-31T04:14:37;16.8;;;3.8;;
68375;SDS011;55318;52.068;5.188;2023-07-31T04:17:50;12.9;;;3.7;;
68375;SDS011;55318;52.068;5.188;2023-07-31T04:19:26;13.3;;;4.3;;
68375;SDS011;55318;52.068;5.188;2023-07-31T04:21:03;10.1;;;4.3;;
68375;SDS011;55318;52.068;5.188;2023-07-31T04:22:40;10.3;;;3.4;;
68375;SDS011;55318;52.068;5.188;2023-07-31T04:25:54;7.4;;;3.4;;
68375;SDS011;55318;52.068;5.188;2023-07-31T04:27:31;9.6;;;3.9;;
68375;SDS011;55318;52.068;5.188;2023-07-31T04:29:07;8.6;;;3.6;;
68375;SDS011;55318;52.068;5.188;2023-07-31T04:32:23;9.71;;;3.7;;
68375;SDS011;55318;52.068;5.188;2023-07-31T04:33:59;5.7;;;3.0;;
68375;SDS011;55318;52.068;5.188;2023-07-31T04:35:36;9.31;;;3.2;;
68375;SDS011;55318;52.068;5.188;2023-07-31T04:38:49;11.1;;;3.9;;
68375;SDS011;55318;52.068;5.188;2023-07-31T04:40:27;11.1;;;3.4;;
68375;SDS011;55318;52.068;5.188;2023-07-31T04:42:04;7.3;;;3.2;;
68375;SDS011;55318;52.068;5.188;2023-07-31T04:43:40;9.71;;;3.1;;
68375;SDS011;55318;52.068;5.188;2023-07-31T04:46:54;10.1;;;3.6;;
68375;SDS011;55318;52.068;5.188;2023-07-31T04:48:31;12.4;;;3.2;;
68375;SDS011;55318;52.068;5.188;2023-07-31T04:50:08;10.7;;;3.5;;
68375;SDS011;55318;52.068;5.188;2023-07-31T04:53:21;8.5;;;2.8;;
68375;SDS011;55318;52.068;5.188;2023-07-31T04:54:58;9.21;;;2.9;;
68375;SDS011;55318;52.068;5.188;2023-07-31T04:56:34;9.31;;;3.6;;
68375;SDS011;55318;52.068;5.188;2023-07-31T04:58:12;7.0;;;2.8;;
68375;SDS011;55318;52.068;5.188;2023-07-31T05:01:25;7.4;;;2.9;;
68375;SDS011;55318;52.068;5.188;2023-07-31T05:03:01;7.6;;;3.1;;
68375;SDS011;55318;52.068;5.188;2023-07-31T05:04:38;4.5;;;2.21;;
68375;SDS011;55318;52.068;5.188;2023-07-31T05:07:53;6.3;;;2.8;;
68375;SDS011;55318;52.068;5.188;2023-07-31T05:09:30;6.5;;;2.5;;
68375;SDS011;55318;52.068;5.188;2023-07-31T05:11:07;4.41;;;2.4;;
68375;SDS011;55318;52.068;5.188;2023-07-31T05:14:21;6.3;;;2.21;;
68375;SDS011;55318;52.068;5.188;2023-07-31T05:15:58;5.4;;;2.31;;
68375;SDS011;55318;52.068;5.188;2023-07-31T05:17:34;5.4;;;2.31;;
68375;SDS011;55318;52.068;5.188;2023-07-31T05:19:12;3.8;;;2.4;;
68375;SDS011;55318;52.068;5.188;2023-07-31T05:22:26;9.21;;;2.5;;
68375;SDS011;55318;52.068;5.188;2023-07-31T05:24:04;5.9;;;2.5;;
68375;SDS011;55318;52.068;5.188;2023-07-31T05:25:41;7.4;;;2.21;;
68375;SDS011;55318;52.068;5.188;2023-07-31T05:28:55;3.4;;;1.8;;
68375;SDS011;55318;52.068;5.188;2023-07-31T05:30:31;4.2;;;1.9;;
68375;SDS011;55318;52.068;5.188;2023-07-31T05:32:08;6.2;;;2.5;;
68375;SDS011;55318;52.068;5.188;2023-07-31T05:33:45;4.7;;;2.1;;
68375;SDS011;55318;52.068;5.188;2023-07-31T05:36:57;3.7;;;1.8;;
68375;SDS011;55318;52.068;5.188;2023-07-31T05:38:34;5.0;;;2.4;;
68375;SDS011;55318;52.068;5.188;2023-07-31T05:40:11;8.31;;;2.4;;
68375;SDS011;55318;52.068;5.188;2023-07-31T05:43:26;4.61;;;2.31;;
68375;SDS011;55318;52.068;5.188;2023-07-31T05:45:03;4.0;;;2.1;;
68375;SDS011;55318;52.068;5.188;2023-07-31T05:46:41;6.0;;;2.6;;
68375;SDS011;55318;52.068;5.188;2023-07-31T05:49:54;6.0;;;2.6;;
68375;SDS011;55318;52.068;5.188;2023-07-31T05:51:32;5.9;;;2.21;;
68375;SDS011;55318;52.068;5.188;2023-07-31T05:53:08;4.8;;;2.21;;
68375;SDS011;55318;52.068;5.188;2023-07-31T05:54:45;7.8;;;2.9;;
68375;SDS011;55318;52.068;5.188;2023-07-31T05:57:59;7.0;;;3.2;;
68375;SDS011;55318;52.068;5.188;2023-07-31T05:59:36;8.71;;;2.31;;
68375;SDS011;55318;52.068;5.188;2023-07-31T06:01:12;5.0;;;2.0;;
68375;SDS011;55318;52.068;5.188;2023-07-31T06:04:26;6.8;;;2.4;;
68375;SDS011;55318;52.068;5.188;2023-07-31T06:06:02;3.4;;;2.21;;
68375;SDS011;55318;52.068;5.188;2023-07-31T06:07:40;5.9;;;2.21;;
68375;SDS011;55318;52.068;5.188;2023-07-31T06:10:53;6.0;;;2.1;;
68375;SDS011;55318;52.068;5.188;2023-07-31T06:12:29;4.0;;;2.21;;
68375;SDS011;55318;52.068;5.188;2023-07-31T06:14:06;5.6;;;1.9;;
68375;SDS011;55318;52.068;5.188;2023-07-31T06:15:42;5.3;;;2.5;;
68375;SDS011;55318;52.068;5.188;2023-07-31T06:18:56;9.21;;;3.1;;
68375;SDS011;55318;52.068;5.188;2023-07-31T06:20:34;6.4;;;2.4;;
68375;SDS011;55318;52.068;5.188;2023-07-31T06:22:11;5.7;;;2.1;;
68375;SDS011;55318;52.068;5.188;2023-07-31T06:25:24;4.2;;;2.1;;
68375;SDS011;55318;52.068;5.188;2023-07-31T06:27:01;5.11;;;2.4;;
68375;SDS011;55318;52.068;5.188;2023-07-31T06:28:37;5.9;;;2.4;;
68375;SDS011;55318;52.068;5.188;2023-07-31T06:30:15;3.6;;;1.9;;
68375;SDS011;55318;52.068;5.188;2023-07-31T06:33:29;4.91;;;2.31;;
68375;SDS011;55318;52.068;5.188;2023-07-31T06:35:06;4.0;;;1.9;;
68375;SDS011;55318;52.068;5.188;2023-07-31T06:36:43;4.91;;;1.7;;
68375;SDS011;55318;52.068;5.188;2023-07-31T06:40:00;3.6;;;2.31;;
68375;SDS011;55318;52.068;5.188;2023-07-31T06:41:38;4.91;;;2.1;;
68375;SDS011;55318;52.068;5.188;2023-07-31T06:43:15;3.9;;;1.4;;
68375;SDS011;55318;52.068;5.188;2023-07-31T06:44:52;6.6;;;1.6;;
68375;SDS011;55318;52.068;5.188;2023-07-31T06:48:05;4.8;;;1.8;;
68375;SDS011;55318;52.068;5.188;2023-07-31T06:49:42;3.9;;;1.8;;
68375;SDS011;55318;52.068;5.188;2023-07-31T06:51:19;3.5;;;1.4;;
68375;SDS011;55318;52.068;5.188;2023-07-31T06:54:32;3.0;;;1.3;;
68375;SDS011;55318;52.068;5.188;2023-07-31T06:56:08;4.91;;;1.6;;
68375;SDS011;55318;52.068;5.188;2023-07-31T06:57:45;5.3;;;1.3;;
68375;SDS011;55318;52.068;5.188;2023-07-31T07:01:00;6.6;;;1.9;;
68375;SDS011;55318;52.068;5.188;2023-07-31T07:02:37;3.9;;;1.8;;
68375;SDS011;55318;52.068;5.188;2023-07-31T07:04:14;3.5;;;1.6;;
68375;SDS011;55318;52.068;5.188;2023-07-31T07:05:51;5.5;;;1.8;;
68375;SDS011;55318;52.068;5.188;2023-07-31T07:09:05;2.8;;;1.7;;
68375;SDS011;55318;52.068;5.188;2023-07-31T07:10:42;1.8;;;1.5;;
68375;SDS011;55318;52.068;5.188;2023-07-31T07:12:18;2.31;;;1.4;;
68375;SDS011;55318;52.068;5.188;2023-07-31T07:15:32;3.8;;;1.5;;
68375;SDS011;55318;52.068;5.188;2023-07-31T07:17:09;4.91;;;1.9;;
68375;SDS011;55318;52.068;5.188;2023-07-31T07:18:46;4.3;;;1.6;;
68375;SDS011;55318;52.068;5.188;2023-07-31T07:22:00;3.0;;;1.6;;
68375;SDS011;55318;52.068;5.188;2023-07-31T07:23:38;3.1;;;1.5;;
68375;SDS011;55318;52.068;5.188;2023-07-31T07:25:14;2.21;;;1.7;;
68375;SDS011;55318;52.068;5.188;2023-07-31T07:26:51;2.4;;;1.4;;
68375;SDS011;55318;52.068;5.188;2023-07-31T07:30:05;3.2;;;1.6;;
68375;SDS011;55318;52.068;5.188;2023-07-31T07:31:42;3.2;;;1.6;;
68375;SDS011;55318;52.068;5.188;2023-07-31T07:33:20;2.8;;;1.3;;
68375;SDS011;55318;52.068;5.188;2023-07-31T07:36:33;4.2;;;1.6;;
68375;SDS011;55318;52.068;5.188;2023-07-31T07:38:13;3.1;;;1.4;;
68375;SDS011;55318;52.068;5.188;2023-07-31T07:39:49;4.0;;;1.4;;
68375;SDS011;55318;52.068;5.188;2023-07-31T07:41:25;4.1;;;1.4;;
68375;SDS011;55318;52.068;5.188;2023-07-31T07:44:39;2.31;;;1.0;;
68375;SDS011;55318;52.068;5.188;2023-07-31T07:46:16;1.8;;;1.5;;
68375;SDS011;55318;52.068;5.188;2023-07-31T07:47:52;1.6;;;1.0;;
68375;SDS011;55318;52.068;5.188;2023-07-31T07:51:08;2.6;;;1.11;;
68375;SDS011;55318;52.068;5.188;2023-07-31T07:52:45;1.6;;;1.2;;
68375;SDS011;55318;52.068;5.188;2023-07-31T07:54:22;2.4;;;0.8;;
68375;SDS011;55318;52.068;5.188;2023-07-31T07:57:36;1.3;;;1.0;;
68375;SDS011;55318;52.068;5.188;2023-07-31T07:59:12;1.3;;;1.0;;
68375;SDS011;55318;52.068;5.188;2023-07-31T08:00:50;1.5;;;0.7;;
68375;SDS011;55318;52.068;5.188;2023-07-31T08:02:26;2.8;;;1.0;;
68375;SDS011;55318;52.068;5.188;2023-07-31T08:05:40;2.8;;;1.0;;
68375;SDS011;55318;52.068;5.188;2023-07-31T08:07:16;0.9;;;0.8;;
68375;SDS011;55318;52.068;5.188;2023-07-31T08:08:53;3.1;;;1.2;;
68375;SDS011;55318;52.068;5.188;2023-07-31T08:12:08;2.7;;;1.0;;
68375;SDS011;55318;52.068;5.188;2023-07-31T08:13:45;0.8;;;0.8;;
68375;SDS011;55318;52.068;5.188;2023-07-31T08:15:22;2.6;;;0.8;;
68375;SDS011;55318;52.068;5.188;2023-07-31T08:16:59;2.4;;;1.11;;
68375;SDS011;55318;52.068;5.188;2023-07-31T08:20:14;0.8;;;0.8;;
68375;SDS011;55318;52.068;5.188;2023-07-31T08:21:51;2.31;;;1.11;;
68375;SDS011;55318;52.068;5.188;2023-07-31T08:23:29;0.9;;;0.6;;
68375;SDS011;55318;52.068;5.188;2023-07-31T08:26:43;1.0;;;0.7;;
68375;SDS011;55318;52.068;5.188;2023-07-31T08:28:20;1.9;;;0.7;;
68375;SDS011;55318;52.068;5.188;2023-07-31T08:29:57;2.5;;;1.0;;
68375;SDS011;55318;52.068;5.188;2023-07-31T08:31:34;0.8;;;0.7;;
68375;SDS011;55318;52.068;5.188;2023-07-31T08:34:48;2.4;;;0.6;;
68375;SDS011;55318;52.068;5.188;2023-07-31T08:36:25;1.6;;;0.8;;
68375;SDS011;55318;52.068;5.188;2023-07-31T08:38:02;1.7;;;0.9;;
68375;SDS011;55318;52.068;5.188;2023-07-31T08:41:16;1.11;;;0.5;;
68375;SDS011;55318;52.068;5.188;2023-07-31T08:42:54;1.6;;;0.8;;
68375;SDS011;55318;52.068;5.188;2023-07-31T08:44:32;0.7;;;0.7;;
68375;SDS011;55318;52.068;5.188;2023-07-31T08:46:10;1.2;;;0.5;;
68375;SDS011;55318;52.068;5.188;2023-07-31T08:49:26;1.0;;;0.7;;
68375;SDS011;55318;52.068;5.188;2023-07-31T08:51:06;2.8;;;0.7;;
68375;SDS011;55318;52.068;5.188;2023-07-31T08:52:43;1.0;;;0.7;;
68375;SDS011;55318;52.068;5.188;2023-07-31T08:56:00;1.11;;;0.6;;
68375;SDS011;55318;52.068;5.188;2023-07-31T08:57:39;2.1;;;1.0;;
68375;SDS011;55318;52.068;5.188;2023-07-31T08:59:18;0.5;;;0.5;;
68375;SDS011;55318;52.068;5.188;2023-07-31T09:00:58;1.0;;;0.7;;
68375;SDS011;55318;52.068;5.188;2023-07-31T09:04:27;1.4;;;0.9;;
68375;SDS011;55318;52.068;5.188;2023-07-31T09:06:05;1.7;;;0.6;;
68375;SDS011;55318;52.068;5.188;2023-07-31T09:07:43;0.9;;;0.6;;
68375;SDS011;55318;52.068;5.188;2023-07-31T09:09:23;1.3;;;0.6;;
68375;SDS011;55318;52.068;5.188;2023-07-31T09:12:37;0.9;;;0.8;;
68375;SDS011;55318;52.068;5.188;2023-07-31T09:14:15;0.9;;;0.8;;
68375;SDS011;55318;52.068;5.188;2023-07-31T09:15:54;1.5;;;0.9;;
68375;SDS011;55318;52.068;5.188;2023-07-31T09:19:10;1.4;;;1.0;;
68375;SDS011;55318;52.068;5.188;2023-07-31T09:20:47;2.21;;;0.8;;
68375;SDS011;55318;52.068;5.188;2023-07-31T09:22:36;1.2;;;1.11;;
68375;SDS011;55318;52.068;5.188;2023-07-31T09:24:14;1.11;;;0.9;;
68375;SDS011;55318;52.068;5.188;2023-07-31T09:26:01;1.2;;;0.9;;
68375;SDS011;55318;52.068;5.188;2023-07-31T09:29:23;0.7;;;0.7;;
68375;SDS011;55318;52.068;5.188;2023-07-31T09:31:01;2.6;;;1.2;;
68375;SDS011;55318;52.068;5.188;2023-07-31T09:32:38;2.21;;;1.11;;
68375;SDS011;55318;52.068;5.188;2023-07-31T09:35:51;1.3;;;1.11;;
68375;SDS011;55318;52.068;5.188;2023-07-31T09:37:29;1.6;;;1.11;;
68375;SDS011;55318;52.068;5.188;2023-07-31T09:39:06;2.31;;;1.11;;
68375;SDS011;55318;52.068;5.188;2023-07-31T09:40:46;1.5;;;1.3;;
68375;SDS011;55318;52.068;5.188;2023-07-31T09:44:02;2.4;;;0.9;;
68375;SDS011;55318;52.068;5.188;2023-07-31T09:45:40;2.5;;;1.11;;
68375;SDS011;55318;52.068;5.188;2023-07-31T09:47:22;2.4;;;1.6;;
68375;SDS011;55318;52.068;5.188;2023-07-31T09:49:09;1.11;;;1.0;;
68375;SDS011;55318;52.068;5.188;2023-07-31T09:52:26;2.21;;;0.9;;
68375;SDS011;55318;52.068;5.188;2023-07-31T09:54:02;1.5;;;1.2;;
68375;SDS011;55318;52.068;5.188;2023-07-31T09:55:40;1.7;;;1.11;;
68375;SDS011;55318;52.068;5.188;2023-07-31T09:57:18;1.7;;;0.9;;
68375;SDS011;55318;52.068;5.188;2023-07-31T10:00:35;1.5;;;1.11;;
68375;SDS011;55318;52.068;5.188;2023-07-31T10:02:15;1.8;;;1.2;;
68375;SDS011;55318;52.068;5.188;2023-07-31T10:03:56;2.5;;;1.2;;
68375;SDS011;55318;52.068;5.188;2023-07-31T10:07:15;1.6;;;1.3;;
68375;SDS011;55318;52.068;5.188;2023-07-31T10:08:54;3.4;;;1.7;;
68375;SDS011;55318;52.068;5.188;2023-07-31T10:10:32;5.0;;;1.4;;
68375;SDS011;55318;52.068;5.188;2023-07-31T10:12:12;2.4;;;1.6;;
68375;SDS011;55318;52.068;5.188;2023-07-31T10:15:31;3.3;;;2.0;;
68375;SDS011;55318;52.068;5.188;2023-07-31T10:17:09;3.3;;;1.6;;
68375;SDS011;55318;52.068;5.188;2023-07-31T10:18:48;3.2;;;1.8;;
68375;SDS011;55318;52.068;5.188;2023-07-31T10:20:26;3.5;;;1.9;;
68375;SDS011;55318;52.068;5.188;2023-07-31T10:23:43;2.0;;;1.9;;
68375;SDS011;55318;52.068;5.188;2023-07-31T10:25:20;5.0;;;2.21;;
68375;SDS011;55318;52.068;5.188;2023-07-31T10:26:59;3.8;;;2.1;;
68375;SDS011;55318;52.068;5.188;2023-07-31T10:30:15;2.8;;;1.9;;
68375;SDS011;55318;52.068;5.188;2023-07-31T10:31:56;2.21;;;1.5;;
68375;SDS011;55318;52.068;5.188;2023-07-31T10:33:33;3.5;;;1.9;;
68375;SDS011;55318;52.068;5.188;2023-07-31T10:35:11;4.2;;;1.9;;
68375;SDS011;55318;52.068;5.188;2023-07-31T10:38:25;3.4;;;2.31;;
68375;SDS011;55318;52.068;5.188;2023-07-31T10:40:02;2.8;;;1.7;;
68375;SDS011;55318;52.068;5.188;2023-07-31T10:41:40;2.31;;;1.7;;
68375;SDS011;55318;52.068;5.188;2023-07-31T10:45:02;3.2;;;1.9;;
68375;SDS011;55318;52.068;5.188;2023-07-31T10:46:42;2.1;;;1.6;;
68375;SDS011;55318;52.068;5.188;2023-07-31T10:48:21;3.4;;;1.7;;
68375;SDS011;55318;52.068;5.188;2023-07-31T10:50:16;4.1;;;1.5;;
68375;SDS011;55318;52.068;5.188;2023-07-31T10:52:10;1.9;;;1.5;;
68375;SDS011;55318;52.068;5.188;2023-07-31T10:53:48;3.5;;;1.8;;
68375;SDS011;55318;52.068;5.188;2023-07-31T10:57:06;2.31;;;1.3;;
68375;SDS011;55318;52.068;5.188;2023-07-31T10:59:00;2.21;;;1.4;;
68375;SDS011;55318;52.068;5.188;2023-07-31T11:00:38;2.8;;;1.6;;
68375;SDS011;55318;52.068;5.188;2023-07-31T11:02:23;2.1;;;1.3;;
68375;SDS011;55318;52.068;5.188;2023-07-31T11:05:48;1.7;;;1.11;;
68375;SDS011;55318;52.068;5.188;2023-07-31T11:07:26;1.3;;;1.11;;
68375;SDS011;55318;52.068;5.188;2023-07-31T11:09:22;4.8;;;1.3;;
68375;SDS011;55318;52.068;5.188;2023-07-31T11:11:04;1.4;;;1.11;;
68375;SDS011;55318;52.068;5.188;2023-07-31T11:12:44;1.2;;;0.9;;
68375;SDS011;55318;52.068;5.188;2023-07-31T11:15:58;0.9;;;0.7;;
68375;SDS011;55318;52.068;5.188;2023-07-31T11:17:38;2.21;;;1.2;;
68375;SDS011;55318;52.068;5.188;2023-07-31T11:19:15;1.11;;;0.9;;
68375;SDS011;55318;52.068;5.188;2023-07-31T11:22:34;2.0;;;0.9;;
68375;SDS011;55318;52.068;5.188;2023-07-31T11:24:12;1.11;;;1.0;;
68375;SDS011;55318;52.068;5.188;2023-07-31T11:25:49;1.7;;;1.5;;
68375;SDS011;55318;52.068;5.188;2023-07-31T11:27:27;1.11;;;1.0;;
68375;SDS011;55318;52.068;5.188;2023-07-31T11:30:46;2.4;;;1.5;;
68375;SDS011;55318;52.068;5.188;2023-07-31T11:32:23;2.8;;;1.7;;
68375;SDS011;55318;52.068;5.188;2023-07-31T11:34:07;2.8;;;1.5;;
68375;SDS011;55318;52.068;5.188;2023-07-31T11:35:44;3.2;;;1.5;;
68375;SDS011;55318;52.068;5.188;2023-07-31T11:39:04;4.8;;;1.8;;
68375;SDS011;55318;52.068;5.188;2023-07-31T11:40:42;1.5;;;1.4;;
68375;SDS011;55318;52.068;5.188;2023-07-31T11:42:18;1.9;;;1.5;;
68375;SDS011;55318;52.068;5.188;2023-07-31T11:45:36;2.6;;;1.8;;
68375;SDS011;55318;52.068;5.188;2023-07-31T11:47:16;1.7;;;1.5;;
68375;SDS011;55318;52.068;5.188;2023-07-31T11:48:52;3.2;;;1.6;;
68375;SDS011;55318;52.068;5.188;2023-07-31T11:50:35;2.31;;;1.9;;
68375;SDS011;55318;52.068;5.188;2023-07-31T11:53:51;3.0;;;1.6;;
68375;SDS011;55318;52.068;5.188;2023-07-31T11:55:31;3.1;;;1.8;;
68375;SDS011;55318;52.068;5.188;2023-07-31T11:57:07;2.9;;;1.9;;
68375;SDS011;55318;52.068;5.188;2023-07-31T11:58:45;3.3;;;2.0;;
68375;SDS011;55318;52.068;5.188;2023-07-31T12:02:00;3.3;;;1.5;;
68375;SDS011;55318;52.068;5.188;2023-07-31T12:03:37;2.8;;;1.9;;
68375;SDS011;55318;52.068;5.188;2023-07-31T12:05:14;2.9;;;1.4;;
68375;SDS011;55318;52.068;5.188;2023-07-31T12:08:29;2.9;;;1.4;;
68375;SDS011;55318;52.068;5.188;2023-07-31T12:10:07;2.5;;;1.3;;
68375;SDS011;55318;52.068;5.188;2023-07-31T12:11:44;2.0;;;1.2;;
68375;SDS011;55318;52.068;5.188;2023-07-31T12:13:23;2.0;;;1.2;;
68375;SDS011;55318;52.068;5.188;2023-07-31T12:16:37;3.2;;;1.11;;
68375;SDS011;55318;52.068;5.188;2023-07-31T12:18:15;1.8;;;1.11;;
68375;SDS011;55318;52.068;5.188;2023-07-31T12:19:56;1.8;;;1.11;;
68375;SDS011;55318;52.068;5.188;2023-07-31T12:23:13;3.4;;;1.4;;
68375;SDS011;55318;52.068;5.188;2023-07-31T12:24:51;2.0;;;1.2;;
68375;SDS011;55318;52.068;5.188;2023-07-31T12:26:33;1.0;;;0.7;;
68375;SDS011;55318;52.068;5.188;2023-07-31T12:28:10;1.11;;;0.9;;
68375;SDS011;55318;52.068;5.188;2023-07-31T12:31:23;1.6;;;1.11;;
68375;SDS011;55318;52.068;5.188;2023-07-31T12:33:05;1.8;;;1.11;;
68375;SDS011;55318;52.068;5.188;2023-07-31T12:34:42;2.1;;;1.4;;
68375;SDS011;55318;52.068;5.188;2023-07-31T12:36:21;1.8;;;1.4;;
68375;SDS011;55318;52.068;5.188;2023-07-31T12:39:37;1.5;;;1.4;;
68375;SDS011;55318;52.068;5.188;2023-07-31T12:41:14;2.4;;;1.8;;
68375;SDS011;55318;52.068;5.188;2023-07-31T12:42:51;3.6;;;1.3;;
68375;SDS011;55318;52.068;5.188;2023-07-31T12:46:05;1.4;;;1.3;;
68375;SDS011;55318;52.068;5.188;2023-07-31T12:47:43;2.5;;;1.7;;
68375;SDS011;55318;52.068;5.188;2023-07-31T12:49:20;1.6;;;1.5;;
68375;SDS011;55318;52.068;5.188;2023-07-31T12:50:57;2.9;;;1.5;;